createdAt,value
2017-07-07T00:00:31.755Z,1011.57
2017-07-07T00:01:12.345Z,1011.55
2017-07-07T00:01:52.923Z,1011.53
2017-07-07T00:02:33.501Z,1011.53
2017-07-07T00:03:14.059Z,1011.54
2017-07-07T00:03:54.667Z,1011.5
2017-07-07T00:04:35.294Z,1011.5
2017-07-07T00:05:15.905Z,1011.49
2017-07-07T00:05:56.468Z,1011.53
2017-07-07T00:06:37.027Z,1011.54
2017-07-07T00:07:17.616Z,1011.58
2017-07-07T00:07:58.191Z,1011.56
2017-07-07T00:08:38.815Z,1011.59
2017-07-07T00:09:19.392Z,1011.61
2017-07-07T00:09:59.972Z,1011.63
2017-07-07T00:10:40.563Z,1011.6
2017-07-07T00:11:21.141Z,1011.61
2017-07-07T00:12:01.724Z,1011.6
2017-07-07T00:12:42.284Z,1011.56
2017-07-07T00:13:22.867Z,1011.58
2017-07-07T00:14:03.428Z,1011.55
2017-07-07T00:14:45.137Z,1011.55
2017-07-07T00:15:25.711Z,1011.56
2017-07-07T00:16:06.294Z,1011.55
2017-07-07T00:16:46.868Z,1011.58
2017-07-07T00:17:27.450Z,1011.54
2017-07-07T00:18:08.020Z,1011.54
2017-07-07T00:18:48.600Z,1011.57
2017-07-07T00:19:29.173Z,1011.57
2017-07-07T00:20:09.759Z,1011.53
2017-07-07T00:20:50.332Z,1011.49
2017-07-07T00:21:30.933Z,1011.56
2017-07-07T00:22:11.498Z,1011.52
2017-07-07T00:22:52.082Z,1011.54
2017-07-07T00:23:32.643Z,1011.49
2017-07-07T00:24:13.218Z,1011.47
2017-07-07T00:24:53.797Z,1011.52
2017-07-07T00:25:34.369Z,1011.48
2017-07-07T00:26:14.929Z,1011.45
2017-07-07T00:26:55.515Z,1011.47
2017-07-07T00:27:36.076Z,1011.5
2017-07-07T00:28:16.655Z,1011.5
2017-07-07T00:28:57.215Z,1011.49
2017-07-07T00:29:37.823Z,1011.52
2017-07-07T00:30:18.351Z,1011.51
2017-07-07T00:30:58.938Z,1011.55
2017-07-07T00:31:39.538Z,1011.5
2017-07-07T00:32:20.091Z,1011.53
2017-07-07T00:33:00.671Z,1011.49
2017-07-07T00:33:41.234Z,1011.47
2017-07-07T00:34:21.806Z,1011.5
2017-07-07T00:35:02.402Z,1011.53
2017-07-07T00:35:42.976Z,1011.48
2017-07-07T00:36:23.552Z,1011.49
2017-07-07T00:37:04.146Z,1011.43
2017-07-07T00:37:44.731Z,1011.4
2017-07-07T00:38:25.306Z,1011.4
2017-07-07T00:39:05.885Z,1011.37
2017-07-07T00:39:46.459Z,1011.39
2017-07-07T00:40:27.046Z,1011.37
2017-07-07T00:41:07.626Z,1011.37
2017-07-07T00:41:48.186Z,1011.38
2017-07-07T00:42:28.788Z,1011.41
2017-07-07T00:43:09.375Z,1011.44
2017-07-07T00:43:49.967Z,1011.44
2017-07-07T00:44:30.556Z,1011.42
2017-07-07T00:45:11.124Z,1011.41
2017-07-07T00:45:51.697Z,1011.42
2017-07-07T00:46:32.339Z,1011.41
2017-07-07T00:47:12.900Z,1011.4
2017-07-07T00:47:53.485Z,1011.34
2017-07-07T00:48:34.106Z,1011.34
2017-07-07T00:49:14.672Z,1011.34
2017-07-07T00:49:55.259Z,1011.34
2017-07-07T00:50:35.837Z,1011.3
2017-07-07T00:51:16.413Z,1011.32
2017-07-07T00:51:56.979Z,1011.33
2017-07-07T00:52:37.556Z,1011.28
2017-07-07T00:53:18.125Z,1011.28
2017-07-07T00:53:58.699Z,1011.29
2017-07-07T00:54:39.267Z,1011.24
2017-07-07T00:55:19.837Z,1011.23
2017-07-07T00:56:00.408Z,1011.21
2017-07-07T00:56:40.981Z,1011.19
2017-07-07T00:57:21.578Z,1011.2
2017-07-07T00:58:02.150Z,1011.19
2017-07-07T00:58:42.730Z,1011.14
2017-07-07T00:59:23.304Z,1011.18
2017-07-07T01:00:03.930Z,1011.21
2017-07-07T01:00:44.497Z,1011.18
2017-07-07T01:01:25.081Z,1011.21
2017-07-07T01:02:05.670Z,1011.15
2017-07-07T01:02:46.237Z,1011.13
2017-07-07T01:03:26.800Z,1011.17
2017-07-07T01:04:07.379Z,1011.12
2017-07-07T01:04:47.981Z,1011.13
2017-07-07T01:05:28.545Z,1011.04
2017-07-07T01:06:09.158Z,1011.04
2017-07-07T01:06:49.735Z,1010.97
2017-07-07T01:07:30.361Z,1010.95
2017-07-07T01:08:10.933Z,1010.89
2017-07-07T01:08:51.518Z,1010.89
2017-07-07T01:09:32.097Z,1010.87
2017-07-07T01:10:12.678Z,1010.82
2017-07-07T01:10:53.245Z,1010.84
2017-07-07T01:11:33.842Z,1010.82
2017-07-07T01:12:14.411Z,1010.79
2017-07-07T01:12:54.998Z,1010.78
2017-07-07T01:13:35.573Z,1010.8
2017-07-07T01:14:16.153Z,1010.73
2017-07-07T01:14:56.717Z,1010.73
2017-07-07T01:15:37.294Z,1010.76
2017-07-07T01:16:17.860Z,1010.78
2017-07-07T01:16:58.434Z,1010.74
2017-07-07T01:17:39.003Z,1010.76
2017-07-07T01:18:19.570Z,1010.74
2017-07-07T01:19:00.157Z,1010.72
2017-07-07T01:19:40.711Z,1010.72
2017-07-07T01:20:21.281Z,1010.74
2017-07-07T01:21:01.866Z,1010.72
2017-07-07T01:21:42.426Z,1010.69
2017-07-07T01:22:23.025Z,1010.7
2017-07-07T01:23:03.578Z,1010.71
2017-07-07T01:23:44.149Z,1010.64
2017-07-07T01:24:24.721Z,1010.66
2017-07-07T01:25:05.280Z,1010.62
2017-07-07T01:25:45.867Z,1010.63
2017-07-07T01:26:26.444Z,1010.65
2017-07-07T01:27:07.025Z,1010.65
2017-07-07T01:27:47.611Z,1010.61
2017-07-07T01:28:28.173Z,1010.58
2017-07-07T01:29:08.759Z,1010.63
2017-07-07T01:29:49.325Z,1010.56
2017-07-07T01:30:29.890Z,1010.58
2017-07-07T01:31:10.474Z,1010.54
2017-07-07T01:31:51.040Z,1010.54
2017-07-07T01:32:31.613Z,1010.49
2017-07-07T01:33:12.187Z,1010.47
2017-07-07T01:33:52.764Z,1010.48
2017-07-07T01:34:33.353Z,1010.46
2017-07-07T01:35:13.975Z,1010.45
2017-07-07T01:35:54.558Z,1010.43
2017-07-07T01:36:35.142Z,1010.42
2017-07-07T01:37:15.703Z,1010.44
2017-07-07T01:37:56.294Z,1010.42
2017-07-07T01:38:36.856Z,1010.47
2017-07-07T01:39:17.424Z,1010.42
2017-07-07T01:39:58.007Z,1010.42
2017-07-07T01:40:38.578Z,1010.4
2017-07-07T01:41:19.144Z,1010.46
2017-07-07T01:41:59.715Z,1010.38
2017-07-07T01:42:40.279Z,1010.37
2017-07-07T01:43:20.855Z,1010.4
2017-07-07T01:44:01.412Z,1010.38
2017-07-07T01:44:42.005Z,1010.38
2017-07-07T01:45:22.589Z,1010.39
2017-07-07T01:46:03.163Z,1010.37
2017-07-07T01:46:43.723Z,1010.4
2017-07-07T01:47:24.301Z,1010.42
2017-07-07T01:48:04.869Z,1010.38
2017-07-07T01:48:45.572Z,1010.35
2017-07-07T01:49:26.199Z,1010.35
2017-07-07T01:50:06.772Z,1010.33
2017-07-07T01:50:47.331Z,1010.3
2017-07-07T01:51:27.921Z,1010.29
2017-07-07T01:52:08.507Z,1010.33
2017-07-07T01:52:49.078Z,1010.31
2017-07-07T01:53:29.665Z,1010.31
2017-07-07T01:54:10.234Z,1010.29
2017-07-07T01:54:50.806Z,1010.28
2017-07-07T01:55:31.372Z,1010.24
2017-07-07T01:56:11.944Z,1010.25
2017-07-07T01:56:52.524Z,1010.25
2017-07-07T01:57:33.101Z,1010.28
2017-07-07T01:58:13.673Z,1010.24
2017-07-07T01:58:54.244Z,1010.2
2017-07-07T01:59:34.815Z,1010.23
2017-07-07T02:00:15.391Z,1010.27
2017-07-07T02:00:55.961Z,1010.22
2017-07-07T02:01:36.531Z,1010.2
2017-07-07T02:02:17.102Z,1010.2
2017-07-07T02:02:57.685Z,1010.17
2017-07-07T02:03:38.259Z,1010.19
2017-07-07T02:04:18.832Z,1010.16
2017-07-07T02:04:59.412Z,1010.22
2017-07-07T02:05:39.984Z,1010.22
2017-07-07T02:06:20.573Z,1010.23
2017-07-07T02:07:01.162Z,1010.25
2017-07-07T02:07:41.734Z,1010.23
2017-07-07T02:08:22.293Z,1010.27
2017-07-07T02:09:02.868Z,1010.27
2017-07-07T02:09:43.437Z,1010.27
2017-07-07T02:10:24.022Z,1010.26
2017-07-07T02:11:04.595Z,1010.21
2017-07-07T02:11:45.158Z,1010.2
2017-07-07T02:12:25.718Z,1010.18
2017-07-07T02:13:06.285Z,1010.16
2017-07-07T02:13:46.885Z,1010.15
2017-07-07T02:14:27.480Z,1010.16
2017-07-07T02:15:08.076Z,1010.1
2017-07-07T02:15:48.651Z,1010.08
2017-07-07T02:16:30.037Z,1010.07
2017-07-07T02:17:10.602Z,1010.09
2017-07-07T02:17:51.179Z,1010.09
2017-07-07T02:18:31.777Z,1010.09
2017-07-07T02:19:12.385Z,1010.07
2017-07-07T02:19:52.989Z,1010.04
2017-07-07T02:20:33.548Z,1010.07
2017-07-07T02:21:14.131Z,1010.08
2017-07-07T02:21:54.733Z,1010.05
2017-07-07T02:22:35.311Z,1010.04
2017-07-07T02:23:15.894Z,1010.02
2017-07-07T02:23:56.458Z,1010.06
2017-07-07T02:24:37.027Z,1010.02
2017-07-07T02:25:17.597Z,1010.04
2017-07-07T02:25:58.176Z,1010.05
2017-07-07T02:26:38.754Z,1010.03
2017-07-07T02:27:19.339Z,1010.01
2017-07-07T02:27:59.993Z,1010
2017-07-07T02:28:40.586Z,1010
2017-07-07T02:29:21.152Z,1010.06
2017-07-07T02:30:01.727Z,1010.02
2017-07-07T02:30:42.300Z,1010.01
2017-07-07T02:31:22.858Z,1010.05
2017-07-07T02:32:03.430Z,1009.99
2017-07-07T02:32:44.013Z,1010.01
2017-07-07T02:33:24.585Z,1009.98
2017-07-07T02:34:05.211Z,1009.95
2017-07-07T02:34:45.736Z,1009.94
2017-07-07T02:35:26.308Z,1009.92
2017-07-07T02:36:06.898Z,1009.94
2017-07-07T02:36:47.463Z,1009.95
2017-07-07T02:37:28.047Z,1009.98
2017-07-07T02:38:08.607Z,1009.96
2017-07-07T02:38:49.175Z,1009.93
2017-07-07T02:39:29.741Z,1009.91
2017-07-07T02:40:10.312Z,1009.95
2017-07-07T02:40:50.881Z,1009.91
2017-07-07T02:41:31.458Z,1009.88
2017-07-07T02:42:12.030Z,1009.88
2017-07-07T02:42:52.629Z,1009.87
2017-07-07T02:43:33.172Z,1009.83
2017-07-07T02:44:13.743Z,1009.8
2017-07-07T02:44:54.340Z,1009.78
2017-07-07T02:45:34.901Z,1009.77
2017-07-07T02:46:15.467Z,1009.77
2017-07-07T02:46:56.037Z,1009.8
2017-07-07T02:47:36.614Z,1009.78
2017-07-07T02:48:17.187Z,1009.74
2017-07-07T02:48:57.765Z,1009.71
2017-07-07T02:49:38.333Z,1009.73
2017-07-07T02:50:18.905Z,1009.71
2017-07-07T02:50:59.460Z,1009.68
2017-07-07T02:51:40.047Z,1009.68
2017-07-07T02:52:20.608Z,1009.63
2017-07-07T02:53:01.169Z,1009.6
2017-07-07T02:53:41.736Z,1009.58
2017-07-07T02:54:22.315Z,1009.56
2017-07-07T02:55:02.913Z,1009.53
2017-07-07T02:55:43.486Z,1009.52
2017-07-07T02:56:24.060Z,1009.49
2017-07-07T02:57:04.661Z,1009.49
2017-07-07T02:57:45.212Z,1009.46
2017-07-07T02:58:25.783Z,1009.47
2017-07-07T02:59:06.356Z,1009.45
2017-07-07T02:59:46.917Z,1009.48
2017-07-07T03:00:27.507Z,1009.46
2017-07-07T03:02:45.688Z,1009.46
2017-07-07T03:03:26.301Z,1009.45
2017-07-07T03:04:06.891Z,1009.42
2017-07-07T03:04:47.468Z,1009.46
2017-07-07T03:05:28.045Z,1009.4
2017-07-07T03:06:08.649Z,1009.34
2017-07-07T03:06:49.258Z,1009.36
2017-07-07T03:07:29.849Z,1009.34
2017-07-07T03:08:10.418Z,1009.37
2017-07-07T03:08:51.012Z,1009.32
2017-07-07T03:09:31.574Z,1009.32
2017-07-07T03:10:12.146Z,1009.33
2017-07-07T03:10:52.724Z,1009.27
2017-07-07T03:11:33.288Z,1009.31
2017-07-07T03:12:13.872Z,1009.28
2017-07-07T03:12:54.425Z,1009.29
2017-07-07T03:13:35.018Z,1009.21
2017-07-07T03:14:15.590Z,1009.25
2017-07-07T03:14:56.146Z,1009.25
2017-07-07T03:15:36.723Z,1009.26
2017-07-07T03:16:17.296Z,1009.27
2017-07-07T03:16:57.880Z,1009.25
2017-07-07T03:17:38.438Z,1009.26
2017-07-07T03:18:19.027Z,1009.26
2017-07-07T03:18:59.612Z,1009.29
2017-07-07T03:19:40.164Z,1009.3
2017-07-07T03:20:20.738Z,1009.3
2017-07-07T03:21:01.321Z,1009.29
2017-07-07T03:21:41.890Z,1009.26
2017-07-07T03:22:22.463Z,1009.25
2017-07-07T03:23:03.045Z,1009.25
2017-07-07T03:23:43.630Z,1009.23
2017-07-07T03:24:24.208Z,1009.25
2017-07-07T03:25:04.783Z,1009.26
2017-07-07T03:25:45.356Z,1009.25
2017-07-07T03:26:25.928Z,1009.28
2017-07-07T03:27:06.543Z,1009.27
2017-07-07T03:27:47.115Z,1009.29
2017-07-07T03:28:27.701Z,1009.29
2017-07-07T03:29:08.296Z,1009.27
2017-07-07T03:29:48.873Z,1009.23
2017-07-07T03:30:29.449Z,1009.25
2017-07-07T03:31:10.016Z,1009.24
2017-07-07T03:31:50.592Z,1009.21
2017-07-07T03:32:31.169Z,1009.21
2017-07-07T03:33:11.758Z,1009.23
2017-07-07T03:33:52.343Z,1009.22
2017-07-07T03:34:32.920Z,1009.22
2017-07-07T03:35:13.507Z,1009.27
2017-07-07T03:35:54.098Z,1009.33
2017-07-07T03:36:34.668Z,1009.31
2017-07-07T03:37:15.257Z,1009.31
2017-07-07T03:37:55.898Z,1009.3
2017-07-07T03:38:36.419Z,1009.35
2017-07-07T03:39:17.025Z,1009.34
2017-07-07T03:39:57.591Z,1009.35
2017-07-07T03:40:38.148Z,1009.33
2017-07-07T03:41:18.718Z,1009.33
2017-07-07T03:41:59.329Z,1009.33
2017-07-07T03:42:39.917Z,1009.3
2017-07-07T03:43:20.505Z,1009.31
2017-07-07T03:44:01.073Z,1009.33
2017-07-07T03:44:41.635Z,1009.27
2017-07-07T03:45:22.218Z,1009.31
2017-07-07T03:46:02.788Z,1009.3
2017-07-07T03:46:43.390Z,1009.34
2017-07-07T03:47:23.967Z,1009.32
2017-07-07T03:48:04.544Z,1009.31
2017-07-07T03:48:45.134Z,1009.35
2017-07-07T03:49:25.720Z,1009.35
2017-07-07T03:50:06.328Z,1009.34
2017-07-07T03:50:46.887Z,1009.34
2017-07-07T03:51:27.491Z,1009.35
2017-07-07T03:52:08.068Z,1009.38
2017-07-07T03:52:48.630Z,1009.34
2017-07-07T03:53:29.189Z,1009.34
2017-07-07T03:54:09.778Z,1009.29
2017-07-07T03:54:50.364Z,1009.29
2017-07-07T03:55:30.945Z,1009.3
2017-07-07T03:56:11.522Z,1009.31
2017-07-07T03:56:52.106Z,1009.31
2017-07-07T03:57:32.703Z,1009.29
2017-07-07T03:58:13.299Z,1009.27
2017-07-07T03:58:53.905Z,1009.32
2017-07-07T03:59:34.478Z,1009.31
2017-07-07T04:00:15.045Z,1009.3
2017-07-07T04:00:55.650Z,1009.32
2017-07-07T04:01:36.230Z,1009.32
2017-07-07T04:02:16.792Z,1009.31
2017-07-07T04:02:57.361Z,1009.28
2017-07-07T04:03:37.957Z,1009.25
2017-07-07T04:04:18.521Z,1009.27
2017-07-07T04:04:59.092Z,1009.29
2017-07-07T04:05:39.662Z,1009.22
2017-07-07T04:06:20.260Z,1009.22
2017-07-07T04:07:00.819Z,1009.21
2017-07-07T04:07:41.387Z,1009.23
2017-07-07T04:08:21.949Z,1009.24
2017-07-07T04:09:02.530Z,1009.24
2017-07-07T04:09:43.100Z,1009.24
2017-07-07T04:10:23.661Z,1009.21
2017-07-07T04:11:04.251Z,1009.2
2017-07-07T04:11:44.862Z,1009.14
2017-07-07T04:12:25.451Z,1009.15
2017-07-07T04:13:06.011Z,1009.15
2017-07-07T04:13:46.586Z,1009.13
2017-07-07T04:14:27.158Z,1009.08
2017-07-07T04:15:07.735Z,1009.1
2017-07-07T04:15:48.307Z,1009.1
2017-07-07T04:16:28.913Z,1009.09
2017-07-07T04:17:09.450Z,1009.09
2017-07-07T04:17:50.019Z,1009.1
2017-07-07T04:18:30.590Z,1009.11
2017-07-07T04:19:11.192Z,1009.09
2017-07-07T04:19:51.784Z,1009.08
2017-07-07T04:20:32.364Z,1009.07
2017-07-07T04:21:12.959Z,1009.06
2017-07-07T04:21:53.553Z,1009.05
2017-07-07T04:22:34.140Z,1009.03
2017-07-07T04:23:14.707Z,1009.02
2017-07-07T04:23:55.298Z,1009.05
2017-07-07T04:24:35.991Z,1008.98
2017-07-07T04:25:16.585Z,1009.04
2017-07-07T04:25:57.150Z,1009.03
2017-07-07T04:26:37.750Z,1008.99
2017-07-07T04:27:18.318Z,1009.01
2017-07-07T04:27:58.895Z,1009
2017-07-07T04:28:39.492Z,1009
2017-07-07T04:29:20.104Z,1008.97
2017-07-07T04:30:00.702Z,1008.96
2017-07-07T04:30:41.277Z,1008.96
2017-07-07T04:31:21.854Z,1008.97
2017-07-07T04:32:02.474Z,1008.94
2017-07-07T04:32:43.054Z,1009.02
2017-07-07T04:33:23.650Z,1008.99
2017-07-07T04:34:04.301Z,1008.98
2017-07-07T04:34:44.919Z,1008.94
2017-07-07T04:35:25.513Z,1009
2017-07-07T04:36:06.121Z,1008.93
2017-07-07T04:36:46.702Z,1008.98
2017-07-07T04:37:27.266Z,1008.98
2017-07-07T04:38:07.836Z,1008.99
2017-07-07T04:38:48.394Z,1009.02
2017-07-07T04:39:28.978Z,1009.06
2017-07-07T04:40:09.543Z,1009.02
2017-07-07T04:40:50.100Z,1009.03
2017-07-07T04:41:30.670Z,1008.95
2017-07-07T04:42:11.237Z,1009
2017-07-07T04:42:51.834Z,1008.94
2017-07-07T04:43:32.418Z,1008.97
2017-07-07T04:44:12.994Z,1008.96
2017-07-07T04:44:53.572Z,1008.99
2017-07-07T04:45:34.137Z,1008.96
2017-07-07T04:46:14.710Z,1009
2017-07-07T04:46:55.272Z,1009.01
2017-07-07T04:47:35.869Z,1009.03
2017-07-07T04:48:16.456Z,1009.04
2017-07-07T04:48:58.262Z,1009.06
2017-07-07T04:49:38.837Z,1009.04
2017-07-07T04:50:19.423Z,1009.07
2017-07-07T04:51:00.002Z,1009.06
2017-07-07T04:51:40.566Z,1009.1
2017-07-07T04:52:21.135Z,1009.09
2017-07-07T04:53:01.824Z,1009.09
2017-07-07T04:53:42.390Z,1009.03
2017-07-07T04:54:22.977Z,1009.06
2017-07-07T04:55:03.539Z,1009.05
2017-07-07T04:55:44.121Z,1009.04
2017-07-07T04:56:24.685Z,1009.01
2017-07-07T04:57:05.265Z,1008.99
2017-07-07T04:57:45.832Z,1008.98
2017-07-07T04:58:26.497Z,1008.97
2017-07-07T04:59:07.086Z,1008.95
2017-07-07T04:59:47.667Z,1009
2017-07-07T05:00:28.238Z,1008.99
2017-07-07T05:01:08.814Z,1008.96
2017-07-07T05:01:49.392Z,1008.94
2017-07-07T05:02:29.984Z,1008.91
2017-07-07T05:03:10.594Z,1008.93
2017-07-07T05:03:51.193Z,1008.92
2017-07-07T05:04:31.777Z,1008.94
2017-07-07T05:05:12.357Z,1008.92
2017-07-07T05:05:52.930Z,1008.94
2017-07-07T05:06:33.595Z,1008.93
2017-07-07T05:07:14.162Z,1008.89
2017-07-07T05:07:54.768Z,1008.9
2017-07-07T05:08:35.347Z,1008.89
2017-07-07T05:09:15.909Z,1008.88
2017-07-07T05:09:56.508Z,1008.87
2017-07-07T05:10:37.097Z,1008.91
2017-07-07T05:11:17.670Z,1008.9
2017-07-07T05:11:58.247Z,1008.87
2017-07-07T05:12:38.813Z,1008.83
2017-07-07T05:13:19.374Z,1008.84
2017-07-07T05:13:59.962Z,1008.89
2017-07-07T05:14:40.552Z,1008.88
2017-07-07T05:15:21.140Z,1008.93
2017-07-07T05:16:01.715Z,1008.96
2017-07-07T05:16:42.321Z,1008.95
2017-07-07T05:17:22.874Z,1008.95
2017-07-07T05:18:03.440Z,1009.01
2017-07-07T05:18:44.005Z,1009.03
2017-07-07T05:19:24.570Z,1009.03
2017-07-07T05:20:05.138Z,1009.02
2017-07-07T05:20:45.721Z,1008.97
2017-07-07T05:21:26.270Z,1009.03
2017-07-07T05:22:06.851Z,1009.05
2017-07-07T05:22:47.436Z,1009.04
2017-07-07T05:23:28.023Z,1009.02
2017-07-07T05:24:08.587Z,1009.06
2017-07-07T05:24:49.169Z,1009.06
2017-07-07T05:25:29.753Z,1009.02
2017-07-07T05:26:10.320Z,1008.96
2017-07-07T05:26:50.895Z,1009
2017-07-07T05:27:31.513Z,1009
2017-07-07T05:28:12.032Z,1009.01
2017-07-07T05:28:52.597Z,1008.99
2017-07-07T05:29:33.187Z,1008.96
2017-07-07T05:30:13.754Z,1008.98
2017-07-07T05:30:54.331Z,1008.92
2017-07-07T05:31:34.928Z,1008.94
2017-07-07T05:32:15.498Z,1008.97
2017-07-07T05:32:56.101Z,1008.93
2017-07-07T05:33:36.720Z,1008.98
2017-07-07T05:34:17.301Z,1008.93
2017-07-07T05:34:57.872Z,1008.92
2017-07-07T05:35:38.438Z,1008.85
2017-07-07T05:36:18.998Z,1008.86
2017-07-07T05:36:59.559Z,1008.84
2017-07-07T05:37:40.180Z,1008.86
2017-07-07T05:38:20.744Z,1008.9
2017-07-07T05:39:01.353Z,1008.91
2017-07-07T05:39:41.957Z,1008.87
2017-07-07T05:40:22.517Z,1008.91
2017-07-07T05:41:03.089Z,1008.89
2017-07-07T05:41:43.650Z,1008.9
2017-07-07T05:42:24.238Z,1008.87
2017-07-07T05:43:04.799Z,1008.86
2017-07-07T05:43:45.367Z,1008.89
2017-07-07T05:44:25.959Z,1008.91
2017-07-07T05:45:06.533Z,1008.91
2017-07-07T05:45:47.102Z,1008.91
2017-07-07T05:46:27.677Z,1008.91
2017-07-07T05:47:08.242Z,1008.92
2017-07-07T05:47:48.812Z,1008.87
2017-07-07T05:48:29.385Z,1008.84
2017-07-07T05:49:09.975Z,1008.87
2017-07-07T05:49:50.538Z,1008.85
2017-07-07T05:50:31.134Z,1008.82
2017-07-07T05:51:11.711Z,1008.79
2017-07-07T05:51:52.292Z,1008.77
2017-07-07T05:52:32.858Z,1008.78
2017-07-07T05:53:13.428Z,1008.83
2017-07-07T05:53:53.991Z,1008.81
2017-07-07T05:54:34.571Z,1008.85
2017-07-07T05:55:15.136Z,1008.85
2017-07-07T05:55:55.735Z,1008.83
2017-07-07T05:56:36.297Z,1008.81
2017-07-07T05:57:16.859Z,1008.81
2017-07-07T05:57:57.485Z,1008.84
2017-07-07T05:58:38.014Z,1008.83
2017-07-07T05:59:18.582Z,1008.87
2017-07-07T05:59:59.152Z,1008.87
2017-07-07T06:00:39.934Z,1008.85
2017-07-07T06:01:20.426Z,1008.89
2017-07-07T06:02:00.993Z,1008.87
2017-07-07T06:02:41.574Z,1008.83
2017-07-07T06:03:22.152Z,1008.88
2017-07-07T06:04:02.740Z,1008.86
2017-07-07T06:04:44.981Z,1008.83
2017-07-07T06:05:24.718Z,1008.87
2017-07-07T06:06:05.275Z,1008.86
2017-07-07T06:06:45.844Z,1008.83
2017-07-07T06:07:26.987Z,1008.82
2017-07-07T06:08:07.710Z,1008.82
2017-07-07T06:08:48.283Z,1008.83
2017-07-07T06:09:28.911Z,1008.78
2017-07-07T06:10:09.778Z,1008.8
2017-07-07T06:10:50.352Z,1008.82
2017-07-07T06:11:30.940Z,1008.75
2017-07-07T06:12:11.516Z,1008.77
2017-07-07T06:12:52.107Z,1008.76
2017-07-07T06:13:32.675Z,1008.76
2017-07-07T06:14:13.240Z,1008.76
2017-07-07T06:14:53.803Z,1008.76
2017-07-07T06:15:34.370Z,1008.78
2017-07-07T06:16:14.946Z,1008.71
2017-07-07T06:16:55.523Z,1008.72
2017-07-07T06:17:36.091Z,1008.74
2017-07-07T06:18:16.692Z,1008.73
2017-07-07T06:18:57.279Z,1008.73
2017-07-07T06:19:37.840Z,1008.74
2017-07-07T06:20:18.407Z,1008.7
2017-07-07T06:20:58.982Z,1008.66
2017-07-07T06:21:39.557Z,1008.66
2017-07-07T06:22:20.136Z,1008.64
2017-07-07T06:23:00.717Z,1008.61
2017-07-07T06:23:41.296Z,1008.57
2017-07-07T06:24:21.869Z,1008.6
2017-07-07T06:25:02.465Z,1008.57
2017-07-07T06:25:43.054Z,1008.57
2017-07-07T06:26:23.636Z,1008.56
2017-07-07T06:27:04.195Z,1008.56
2017-07-07T06:27:44.777Z,1008.57
2017-07-07T06:28:25.358Z,1008.59
2017-07-07T06:29:05.919Z,1008.57
2017-07-07T06:29:46.491Z,1008.59
2017-07-07T06:30:27.093Z,1008.53
2017-07-07T06:31:07.679Z,1008.5
2017-07-07T06:31:48.259Z,1008.52
2017-07-07T06:32:28.838Z,1008.47
2017-07-07T06:33:09.409Z,1008.47
2017-07-07T06:33:49.980Z,1008.42
2017-07-07T06:34:30.545Z,1008.42
2017-07-07T06:35:11.138Z,1008.36
2017-07-07T06:35:51.715Z,1008.39
2017-07-07T06:36:32.279Z,1008.35
2017-07-07T06:37:12.841Z,1008.32
2017-07-07T06:37:53.424Z,1008.42
2017-07-07T06:38:33.991Z,1008.35
2017-07-07T06:39:14.597Z,1008.33
2017-07-07T06:39:55.197Z,1008.36
2017-07-07T06:40:35.774Z,1008.3
2017-07-07T06:41:16.342Z,1008.3
2017-07-07T06:41:56.915Z,1008.25
2017-07-07T06:42:37.511Z,1008.2
2017-07-07T06:43:18.085Z,1008.2
2017-07-07T06:43:58.657Z,1008.12
2017-07-07T06:44:39.252Z,1008.03
2017-07-07T06:45:19.835Z,1007.97
2017-07-07T06:46:00.410Z,1007.95
2017-07-07T06:46:41.068Z,1007.94
2017-07-07T06:47:21.715Z,1007.97
2017-07-07T06:48:02.263Z,1007.94
2017-07-07T06:48:42.828Z,1007.95
2017-07-07T06:49:23.412Z,1007.97
2017-07-07T06:50:04.190Z,1008.02
2017-07-07T06:50:44.991Z,1008.02
2017-07-07T06:51:25.733Z,1008.03
2017-07-07T06:52:06.346Z,1008.1
2017-07-07T06:52:46.937Z,1008.07
2017-07-07T06:53:27.523Z,1008.03
2017-07-07T06:54:08.265Z,1008.02
2017-07-07T06:54:48.869Z,1008.02
2017-07-07T06:55:29.450Z,1008.06
2017-07-07T06:56:10.066Z,1008.08
2017-07-07T06:56:50.676Z,1008.1
2017-07-07T06:57:31.375Z,1008.12
2017-07-07T06:58:11.952Z,1008.11
2017-07-07T06:58:52.560Z,1008.11
2017-07-07T06:59:33.144Z,1008.1
2017-07-07T07:00:13.709Z,1008.12
2017-07-07T07:00:54.265Z,1008.16
2017-07-07T07:01:34.837Z,1008.17
2017-07-07T07:02:15.429Z,1008.18
2017-07-07T07:02:56.009Z,1008.18
2017-07-07T07:03:36.669Z,1008.16
2017-07-07T07:04:17.328Z,1008.16
2017-07-07T07:04:57.941Z,1008.19
2017-07-07T07:05:38.515Z,1008.13
2017-07-07T07:06:19.112Z,1008.14
2017-07-07T07:06:59.674Z,1008.16
2017-07-07T07:07:40.249Z,1008.14
2017-07-07T07:08:21.110Z,1008.19
2017-07-07T07:09:01.703Z,1008.15
2017-07-07T07:09:42.305Z,1008.15
2017-07-07T07:10:22.886Z,1008.1
2017-07-07T07:11:03.476Z,1008.14
2017-07-07T07:11:44.079Z,1008.1
2017-07-07T07:12:24.648Z,1008.08
2017-07-07T07:13:05.236Z,1008.06
2017-07-07T07:13:45.846Z,1008.11
2017-07-07T07:14:26.444Z,1008.05
2017-07-07T07:15:07.040Z,1008.07
2017-07-07T07:15:47.609Z,1008.06
2017-07-07T07:16:28.204Z,1008.06
2017-07-07T07:17:09.081Z,1008.04
2017-07-07T07:17:49.661Z,1008.01
2017-07-07T07:18:30.247Z,1008.06
2017-07-07T07:19:10.811Z,1007.99
2017-07-07T07:19:51.397Z,1007.99
2017-07-07T07:20:32.018Z,1008.02
2017-07-07T07:21:12.709Z,1008.04
2017-07-07T07:21:53.276Z,1008.04
2017-07-07T07:22:33.836Z,1008.09
2017-07-07T07:23:14.419Z,1008.08
2017-07-07T07:23:54.995Z,1008.08
2017-07-07T07:24:35.579Z,1008.09
2017-07-07T07:25:16.236Z,1008.09
2017-07-07T07:25:56.804Z,1008.07
2017-07-07T07:26:37.414Z,1008.1
2017-07-07T07:27:17.987Z,1008.13
2017-07-07T07:27:58.554Z,1008.16
2017-07-07T07:28:39.117Z,1008.14
2017-07-07T07:29:19.694Z,1008.15
2017-07-07T07:30:00.293Z,1008.19
2017-07-07T07:30:40.873Z,1008.17
2017-07-07T07:31:21.457Z,1008.19
2017-07-07T07:32:02.053Z,1008.24
2017-07-07T07:32:42.631Z,1008.31
2017-07-07T07:33:23.193Z,1008.3
2017-07-07T07:34:03.779Z,1008.33
2017-07-07T07:34:44.352Z,1008.38
2017-07-07T07:35:24.943Z,1008.38
2017-07-07T07:36:05.520Z,1008.43
2017-07-07T07:36:46.119Z,1008.46
2017-07-07T07:37:26.697Z,1008.46
2017-07-07T07:38:07.266Z,1008.46
2017-07-07T07:38:47.870Z,1008.43
2017-07-07T07:39:28.447Z,1008.41
2017-07-07T07:40:09.062Z,1008.42
2017-07-07T07:40:49.653Z,1008.38
2017-07-07T07:41:30.235Z,1008.39
2017-07-07T07:42:10.817Z,1008.42
2017-07-07T07:42:51.405Z,1008.39
2017-07-07T07:43:32.022Z,1008.45
2017-07-07T07:44:12.611Z,1008.46
2017-07-07T07:44:53.196Z,1008.51
2017-07-07T07:45:33.782Z,1008.48
2017-07-07T07:46:14.358Z,1008.51
2017-07-07T07:46:54.920Z,1008.5
2017-07-07T07:47:35.496Z,1008.51
2017-07-07T07:48:16.085Z,1008.49
2017-07-07T07:48:56.690Z,1008.48
2017-07-07T07:49:37.244Z,1008.44
2017-07-07T07:50:17.838Z,1008.42
2017-07-07T07:50:58.432Z,1008.39
2017-07-07T07:51:39.006Z,1008.44
2017-07-07T07:52:19.600Z,1008.47
2017-07-07T07:53:00.189Z,1008.46
2017-07-07T07:53:40.841Z,1008.46
2017-07-07T07:54:21.418Z,1008.51
2017-07-07T07:55:02.000Z,1008.54
2017-07-07T07:55:42.574Z,1008.53
2017-07-07T07:56:23.148Z,1008.53
2017-07-07T07:57:03.734Z,1008.52
2017-07-07T07:57:44.316Z,1008.47
2017-07-07T07:58:24.877Z,1008.45
2017-07-07T07:59:05.466Z,1008.45
2017-07-07T07:59:46.038Z,1008.49
2017-07-07T08:00:26.600Z,1008.5
2017-07-07T08:01:07.178Z,1008.47
2017-07-07T08:01:47.759Z,1008.5
2017-07-07T08:02:28.353Z,1008.49
2017-07-07T08:03:08.926Z,1008.49
2017-07-07T08:03:49.509Z,1008.48
2017-07-07T08:04:30.076Z,1008.48
2017-07-07T08:05:10.656Z,1008.52
2017-07-07T08:05:51.245Z,1008.52
2017-07-07T08:06:31.823Z,1008.52
2017-07-07T08:07:12.427Z,1008.54
2017-07-07T08:07:52.999Z,1008.52
2017-07-07T08:08:33.601Z,1008.52
2017-07-07T08:09:14.179Z,1008.51
2017-07-07T08:09:54.757Z,1008.5
2017-07-07T08:10:35.346Z,1008.53
2017-07-07T08:11:15.916Z,1008.52
2017-07-07T08:11:56.543Z,1008.53
2017-07-07T08:12:37.117Z,1008.53
2017-07-07T08:13:17.678Z,1008.55
2017-07-07T08:13:58.256Z,1008.56
2017-07-07T08:14:38.820Z,1008.55